sensor_id;sensor_type;location;lat;lon;timestamp;P1;durP1;ratioP1;P2;durP2;ratioP2
78774;SDS011;68119;43.398;3.676;2023-11-18T00:02:16;4.65;;;1.80;;
78774;SDS011;68119;43.398;3.676;2023-11-18T00:04:52;8.05;;;2.28;;
78774;SDS011;68119;43.398;3.676;2023-11-18T00:07:20;6.90;;;3.92;;
78774;SDS011;68119;43.398;3.676;2023-11-18T00:09:50;9.52;;;4.05;;
78774;SDS011;68119;43.398;3.676;2023-11-18T00:12:19;7.85;;;3.97;;
78774;SDS011;68119;43.398;3.676;2023-11-18T00:14:46;6.28;;;3.30;;
78774;SDS011;68119;43.398;3.676;2023-11-18T00:17:28;6.88;;;4.10;;
78774;SDS011;68119;43.398;3.676;2023-11-18T00:19:54;6.50;;;3.50;;
78774;SDS011;68119;43.398;3.676;2023-11-18T00:22:21;5.90;;;3.08;;
78774;SDS011;68119;43.398;3.676;2023-11-18T00:24:50;5.28;;;2.55;;
78774;SDS011;68119;43.398;3.676;2023-11-18T00:27:20;4.60;;;2.55;;
78774;SDS011;68119;43.398;3.676;2023-11-18T00:29:48;4.83;;;2.60;;
78774;SDS011;68119;43.398;3.676;2023-11-18T00:32:18;8.38;;;2.60;;
78774;SDS011;68119;43.398;3.676;2023-11-18T00:34:44;6.10;;;2.47;;
78774;SDS011;68119;43.398;3.676;2023-11-18T00:37:17;7.00;;;2.70;;
78774;SDS011;68119;43.398;3.676;2023-11-18T00:39:46;3.67;;;2.80;;
78774;SDS011;68119;43.398;3.676;2023-11-18T00:42:15;3.80;;;2.40;;
78774;SDS011;68119;43.398;3.676;2023-11-18T00:44:44;5.18;;;2.40;;
78774;SDS011;68119;43.398;3.676;2023-11-18T00:47:11;4.57;;;2.30;;
78774;SDS011;68119;43.398;3.676;2023-11-18T00:49:37;4.00;;;2.40;;
78774;SDS011;68119;43.398;3.676;2023-11-18T00:52:05;3.50;;;2.10;;
78774;SDS011;68119;43.398;3.676;2023-11-18T00:54:40;3.90;;;2.20;;
78774;SDS011;68119;43.398;3.676;2023-11-18T00:57:07;5.20;;;2.15;;
78774;SDS011;68119;43.398;3.676;2023-11-18T00:59:45;5.32;;;2.55;;
78774;SDS011;68119;43.398;3.676;2023-11-18T01:02:11;3.78;;;2.25;;
78774;SDS011;68119;43.398;3.676;2023-11-18T01:04:41;4.53;;;1.95;;
78774;SDS011;68119;43.398;3.676;2023-11-18T01:07:07;5.72;;;2.25;;
78774;SDS011;68119;43.398;3.676;2023-11-18T01:09:37;4.45;;;1.70;;
78774;SDS011;68119;43.398;3.676;2023-11-18T01:12:04;3.00;;;1.90;;
78774;SDS011;68119;43.398;3.676;2023-11-18T01:14:37;4.07;;;1.95;;
78774;SDS011;68119;43.398;3.676;2023-11-18T01:17:07;6.90;;;2.00;;
78774;SDS011;68119;43.398;3.676;2023-11-18T01:19:36;2.58;;;1.60;;
78774;SDS011;68119;43.398;3.676;2023-11-18T01:22:05;4.15;;;1.60;;
78774;SDS011;68119;43.398;3.676;2023-11-18T01:27:06;2.80;;;1.60;;
78774;SDS011;68119;43.398;3.676;2023-11-18T01:29:37;3.72;;;1.83;;
78774;SDS011;68119;43.398;3.676;2023-11-18T01:32:07;3.88;;;1.83;;
78774;SDS011;68119;43.398;3.676;2023-11-18T01:34:36;5.45;;;2.08;;
78774;SDS011;68119;43.398;3.676;2023-11-18T01:37:04;3.45;;;1.75;;
78774;SDS011;68119;43.398;3.676;2023-11-18T01:39:35;4.38;;;1.63;;
78774;SDS011;68119;43.398;3.676;2023-11-18T01:44:43;5.13;;;1.77;;
78774;SDS011;68119;43.398;3.676;2023-11-18T01:47:12;10.38;;;2.85;;
78774;SDS011;68119;43.398;3.676;2023-11-18T01:49:45;2.83;;;1.65;;
78774;SDS011;68119;43.398;3.676;2023-11-18T01:52:17;2.85;;;1.45;;
78774;SDS011;68119;43.398;3.676;2023-11-18T01:54:44;2.92;;;1.67;;
78774;SDS011;68119;43.398;3.676;2023-11-18T01:57:13;3.00;;;1.50;;
78774;SDS011;68119;43.398;3.676;2023-11-18T01:59:44;3.30;;;1.55;;
78774;SDS011;68119;43.398;3.676;2023-11-18T02:02:13;2.83;;;1.48;;
78774;SDS011;68119;43.398;3.676;2023-11-18T02:04:40;5.63;;;1.80;;
78774;SDS011;68119;43.398;3.676;2023-11-18T02:07:12;3.65;;;1.60;;
78774;SDS011;68119;43.398;3.676;2023-11-18T02:09:40;3.00;;;1.63;;
78774;SDS011;68119;43.398;3.676;2023-11-18T02:14:35;3.20;;;1.63;;
78774;SDS011;68119;43.398;3.676;2023-11-18T02:17:05;3.67;;;1.95;;
78774;SDS011;68119;43.398;3.676;2023-11-18T02:19:31;3.08;;;1.63;;
78774;SDS011;68119;43.398;3.676;2023-11-18T02:22:11;2.53;;;1.50;;
78774;SDS011;68119;43.398;3.676;2023-11-18T02:24:37;2.83;;;1.67;;
78774;SDS011;68119;43.398;3.676;2023-11-18T02:27:06;4.13;;;1.55;;
78774;SDS011;68119;43.398;3.676;2023-11-18T02:29:38;3.42;;;1.70;;
78774;SDS011;68119;43.398;3.676;2023-11-18T02:32:15;2.90;;;1.63;;
78774;SDS011;68119;43.398;3.676;2023-11-18T02:34:53;4.43;;;1.58;;
78774;SDS011;68119;43.398;3.676;2023-11-18T02:37:25;2.58;;;1.55;;
78774;SDS011;68119;43.398;3.676;2023-11-18T02:39:53;2.90;;;1.50;;
78774;SDS011;68119;43.398;3.676;2023-11-18T02:42:31;3.58;;;1.50;;
78774;SDS011;68119;43.398;3.676;2023-11-18T02:44:58;3.92;;;1.60;;
78774;SDS011;68119;43.398;3.676;2023-11-18T02:47:25;2.17;;;1.38;;
78774;SDS011;68119;43.398;3.676;2023-11-18T02:50:02;4.38;;;1.45;;
78774;SDS011;68119;43.398;3.676;2023-11-18T02:52:38;4.85;;;1.65;;
78774;SDS011;68119;43.398;3.676;2023-11-18T02:55:16;2.38;;;1.40;;
78774;SDS011;68119;43.398;3.676;2023-11-18T02:57:51;5.95;;;1.90;;
78774;SDS011;68119;43.398;3.676;2023-11-18T03:00:31;3.78;;;1.60;;
78774;SDS011;68119;43.398;3.676;2023-11-18T03:02:58;3.75;;;1.58;;
78774;SDS011;68119;43.398;3.676;2023-11-18T03:05:27;4.85;;;1.40;;
78774;SDS011;68119;43.398;3.676;2023-11-18T03:07:56;2.60;;;1.40;;
78774;SDS011;68119;43.398;3.676;2023-11-18T03:10:28;3.60;;;1.70;;
78774;SDS011;68119;43.398;3.676;2023-11-18T03:13:01;3.83;;;1.52;;
78774;SDS011;68119;43.398;3.676;2023-11-18T03:15:28;3.40;;;1.60;;
78774;SDS011;68119;43.398;3.676;2023-11-18T03:17:59;3.55;;;1.50;;
78774;SDS011;68119;43.398;3.676;2023-11-18T03:20:26;2.60;;;1.35;;
78774;SDS011;68119;43.398;3.676;2023-11-18T03:23:04;3.58;;;1.55;;
78774;SDS011;68119;43.398;3.676;2023-11-18T03:25:32;5.90;;;1.60;;
78774;SDS011;68119;43.398;3.676;2023-11-18T03:28:03;5.75;;;1.42;;
78774;SDS011;68119;43.398;3.676;2023-11-18T03:30:35;4.20;;;2.17;;
78774;SDS011;68119;43.398;3.676;2023-11-18T03:33:03;4.65;;;1.58;;
78774;SDS011;68119;43.398;3.676;2023-11-18T03:35:29;4.53;;;1.75;;
78774;SDS011;68119;43.398;3.676;2023-11-18T03:37:56;5.00;;;1.73;;
78774;SDS011;68119;43.398;3.676;2023-11-18T03:40:37;3.72;;;1.60;;
78774;SDS011;68119;43.398;3.676;2023-11-18T03:43:03;3.80;;;1.58;;
78774;SDS011;68119;43.398;3.676;2023-11-18T03:45:30;2.83;;;1.58;;
78774;SDS011;68119;43.398;3.676;2023-11-18T03:47:56;3.08;;;1.50;;
78774;SDS011;68119;43.398;3.676;2023-11-18T03:50:25;3.65;;;1.25;;
78774;SDS011;68119;43.398;3.676;2023-11-18T03:52:58;4.35;;;1.88;;
78774;SDS011;68119;43.398;3.676;2023-11-18T03:55:34;2.53;;;1.58;;
78774;SDS011;68119;43.398;3.676;2023-11-18T03:58:03;6.50;;;2.00;;
78774;SDS011;68119;43.398;3.676;2023-11-18T04:00:32;3.35;;;1.70;;
78774;SDS011;68119;43.398;3.676;2023-11-18T04:03:01;4.85;;;1.80;;
78774;SDS011;68119;43.398;3.676;2023-11-18T04:05:35;3.78;;;1.80;;
78774;SDS011;68119;43.398;3.676;2023-11-18T04:08:04;5.00;;;1.60;;
78774;SDS011;68119;43.398;3.676;2023-11-18T04:10:46;2.63;;;1.52;;
78774;SDS011;68119;43.398;3.676;2023-11-18T04:13:18;3.65;;;1.67;;
78774;SDS011;68119;43.398;3.676;2023-11-18T04:15:46;5.38;;;1.95;;
78774;SDS011;68119;43.398;3.676;2023-11-18T04:18:17;4.85;;;1.80;;
78774;SDS011;68119;43.398;3.676;2023-11-18T04:20:47;2.40;;;1.70;;
78774;SDS011;68119;43.398;3.676;2023-11-18T04:23:16;2.50;;;1.38;;
78774;SDS011;68119;43.398;3.676;2023-11-18T04:25:42;4.05;;;1.33;;
78774;SDS011;68119;43.398;3.676;2023-11-18T04:28:11;5.88;;;1.80;;
78774;SDS011;68119;43.398;3.676;2023-11-18T04:30:38;2.85;;;1.73;;
78774;SDS011;68119;43.398;3.676;2023-11-18T04:33:08;2.58;;;1.42;;
78774;SDS011;68119;43.398;3.676;2023-11-18T04:35:37;4.45;;;1.52;;
78774;SDS011;68119;43.398;3.676;2023-11-18T04:38:07;4.90;;;1.63;;
78774;SDS011;68119;43.398;3.676;2023-11-18T04:40:37;3.33;;;1.50;;
78774;SDS011;68119;43.398;3.676;2023-11-18T04:43:06;2.08;;;1.40;;
78774;SDS011;68119;43.398;3.676;2023-11-18T04:45:36;3.40;;;1.50;;
78774;SDS011;68119;43.398;3.676;2023-11-18T04:48:04;1.88;;;1.30;;
78774;SDS011;68119;43.398;3.676;2023-11-18T04:50:31;5.38;;;1.40;;
78774;SDS011;68119;43.398;3.676;2023-11-18T04:53:00;2.72;;;1.50;;
78774;SDS011;68119;43.398;3.676;2023-11-18T04:55:28;2.42;;;1.55;;
78774;SDS011;68119;43.398;3.676;2023-11-18T04:57:59;4.15;;;1.80;;
78774;SDS011;68119;43.398;3.676;2023-11-18T05:00:29;3.90;;;1.42;;
78774;SDS011;68119;43.398;3.676;2023-11-18T05:05:24;2.88;;;1.40;;
78774;SDS011;68119;43.398;3.676;2023-11-18T05:07:51;3.58;;;1.33;;
78774;SDS011;68119;43.398;3.676;2023-11-18T05:10:17;2.15;;;1.42;;
78774;SDS011;68119;43.398;3.676;2023-11-18T05:12:46;2.13;;;1.40;;
78774;SDS011;68119;43.398;3.676;2023-11-18T05:15:21;3.80;;;1.70;;
78774;SDS011;68119;43.398;3.676;2023-11-18T05:17:53;2.47;;;1.25;;
78774;SDS011;68119;43.398;3.676;2023-11-18T05:20:20;4.47;;;1.40;;
78774;SDS011;68119;43.398;3.676;2023-11-18T05:22:50;3.38;;;1.40;;
78774;SDS011;68119;43.398;3.676;2023-11-18T05:25:16;3.97;;;1.73;;
78774;SDS011;68119;43.398;3.676;2023-11-18T05:27:42;2.60;;;1.50;;
78774;SDS011;68119;43.398;3.676;2023-11-18T05:30:12;3.70;;;1.50;;
78774;SDS011;68119;43.398;3.676;2023-11-18T05:32:39;2.00;;;1.40;;
78774;SDS011;68119;43.398;3.676;2023-11-18T05:35:05;2.13;;;1.33;;
78774;SDS011;68119;43.398;3.676;2023-11-18T05:37:36;5.38;;;1.77;;
78774;SDS011;68119;43.398;3.676;2023-11-18T05:40:12;2.53;;;1.33;;
78774;SDS011;68119;43.398;3.676;2023-11-18T05:42:44;1.55;;;1.08;;
78774;SDS011;68119;43.398;3.676;2023-11-18T05:45:19;3.67;;;1.65;;
78774;SDS011;68119;43.398;3.676;2023-11-18T05:48:21;3.45;;;1.40;;
78774;SDS011;68119;43.398;3.676;2023-11-18T05:50:50;2.38;;;1.40;;
78774;SDS011;68119;43.398;3.676;2023-11-18T05:53:17;1.98;;;1.20;;
78774;SDS011;68119;43.398;3.676;2023-11-18T05:55:44;2.30;;;1.13;;
78774;SDS011;68119;43.398;3.676;2023-11-18T05:58:13;1.55;;;1.20;;
78774;SDS011;68119;43.398;3.676;2023-11-18T06:00:46;1.33;;;1.10;;
78774;SDS011;68119;43.398;3.676;2023-11-18T06:03:13;2.08;;;1.10;;
78774;SDS011;68119;43.398;3.676;2023-11-18T06:05:40;1.88;;;1.17;;
78774;SDS011;68119;43.398;3.676;2023-11-18T06:08:08;2.88;;;1.20;;
78774;SDS011;68119;43.398;3.676;2023-11-18T06:10:36;7.60;;;1.33;;
78774;SDS011;68119;43.398;3.676;2023-11-18T06:13:05;2.97;;;1.42;;
78774;SDS011;68119;43.398;3.676;2023-11-18T06:15:32;1.52;;;1.20;;
78774;SDS011;68119;43.398;3.676;2023-11-18T06:18:03;2.47;;;1.30;;
78774;SDS011;68119;43.398;3.676;2023-11-18T06:20:30;2.42;;;1.42;;
78774;SDS011;68119;43.398;3.676;2023-11-18T06:22:59;2.42;;;1.42;;
78774;SDS011;68119;43.398;3.676;2023-11-18T06:25:29;2.03;;;1.20;;
78774;SDS011;68119;43.398;3.676;2023-11-18T06:27:59;4.13;;;1.50;;
78774;SDS011;68119;43.398;3.676;2023-11-18T06:30:28;2.60;;;1.20;;
78774;SDS011;68119;43.398;3.676;2023-11-18T06:33:04;3.75;;;1.13;;
78774;SDS011;68119;43.398;3.676;2023-11-18T06:35:37;2.35;;;1.42;;
78774;SDS011;68119;43.398;3.676;2023-11-18T06:38:05;2.10;;;1.63;;
78774;SDS011;68119;43.398;3.676;2023-11-18T06:40:35;3.97;;;1.85;;
78774;SDS011;68119;43.398;3.676;2023-11-18T06:43:05;3.65;;;2.05;;
78774;SDS011;68119;43.398;3.676;2023-11-18T06:45:36;4.18;;;2.30;;
78774;SDS011;68119;43.398;3.676;2023-11-18T06:48:11;6.90;;;2.05;;
78774;SDS011;68119;43.398;3.676;2023-11-18T06:50:40;3.78;;;1.90;;
78774;SDS011;68119;43.398;3.676;2023-11-18T06:53:10;4.53;;;2.65;;
78774;SDS011;68119;43.398;3.676;2023-11-18T06:55:43;5.20;;;2.58;;
78774;SDS011;68119;43.398;3.676;2023-11-18T06:58:12;5.07;;;2.45;;
78774;SDS011;68119;43.398;3.676;2023-11-18T07:00:38;5.75;;;2.50;;
78774;SDS011;68119;43.398;3.676;2023-11-18T07:03:22;7.03;;;3.25;;
78774;SDS011;68119;43.398;3.676;2023-11-18T07:05:54;5.70;;;3.38;;
78774;SDS011;68119;43.398;3.676;2023-11-18T07:08:23;4.53;;;2.67;;
78774;SDS011;68119;43.398;3.676;2023-11-18T07:10:52;4.50;;;2.38;;
78774;SDS011;68119;43.398;3.676;2023-11-18T07:13:19;3.65;;;2.17;;
78774;SDS011;68119;43.398;3.676;2023-11-18T07:15:50;4.55;;;2.20;;
78774;SDS011;68119;43.398;3.676;2023-11-18T07:18:19;3.55;;;2.13;;
78774;SDS011;68119;43.398;3.676;2023-11-18T07:20:50;4.13;;;1.60;;
78774;SDS011;68119;43.398;3.676;2023-11-18T07:23:25;3.67;;;1.85;;
78774;SDS011;68119;43.398;3.676;2023-11-18T07:25:54;2.33;;;1.55;;
78774;SDS011;68119;43.398;3.676;2023-11-18T07:28:26;2.67;;;1.80;;
78774;SDS011;68119;43.398;3.676;2023-11-18T07:30:55;4.97;;;1.42;;
78774;SDS011;68119;43.398;3.676;2023-11-18T07:33:25;3.35;;;1.75;;
78774;SDS011;68119;43.398;3.676;2023-11-18T07:35:58;3.40;;;1.40;;
78774;SDS011;68119;43.398;3.676;2023-11-18T07:38:27;1.63;;;1.52;;
78774;SDS011;68119;43.398;3.676;2023-11-18T07:40:59;1.90;;;1.42;;
78774;SDS011;68119;43.398;3.676;2023-11-18T07:43:28;2.85;;;1.40;;
78774;SDS011;68119;43.398;3.676;2023-11-18T07:45:54;4.35;;;1.55;;
78774;SDS011;68119;43.398;3.676;2023-11-18T07:48:26;2.50;;;1.48;;
78774;SDS011;68119;43.398;3.676;2023-11-18T07:50:54;2.90;;;1.75;;
78774;SDS011;68119;43.398;3.676;2023-11-18T07:53:25;3.38;;;2.00;;
78774;SDS011;68119;43.398;3.676;2023-11-18T07:55:54;4.63;;;2.10;;
78774;SDS011;68119;43.398;3.676;2023-11-18T07:58:33;4.95;;;2.13;;
78774;SDS011;68119;43.398;3.676;2023-11-18T08:01:02;9.50;;;5.20;;
78774;SDS011;68119;43.398;3.676;2023-11-18T08:03:35;8.13;;;4.72;;
78774;SDS011;68119;43.398;3.676;2023-11-18T08:06:06;6.78;;;4.53;;
78774;SDS011;68119;43.398;3.676;2023-11-18T08:08:35;9.75;;;5.50;;
78774;SDS011;68119;43.398;3.676;2023-11-18T08:11:11;13.82;;;7.85;;
78774;SDS011;68119;43.398;3.676;2023-11-18T08:13:40;11.18;;;5.93;;
78774;SDS011;68119;43.398;3.676;2023-11-18T08:16:09;10.00;;;5.80;;
78774;SDS011;68119;43.398;3.676;2023-11-18T08:18:36;9.13;;;5.57;;
78774;SDS011;68119;43.398;3.676;2023-11-18T08:21:06;7.43;;;4.00;;
78774;SDS011;68119;43.398;3.676;2023-11-18T08:23:38;7.10;;;4.15;;
78774;SDS011;68119;43.398;3.676;2023-11-18T08:26:08;5.97;;;3.20;;
78774;SDS011;68119;43.398;3.676;2023-11-18T08:28:37;4.68;;;2.67;;
78774;SDS011;68119;43.398;3.676;2023-11-18T08:31:03;4.03;;;2.45;;
78774;SDS011;68119;43.398;3.676;2023-11-18T08:33:31;3.80;;;2.22;;
78774;SDS011;68119;43.398;3.676;2023-11-18T08:36:01;3.67;;;1.90;;
78774;SDS011;68119;43.398;3.676;2023-11-18T08:38:30;3.35;;;1.88;;
78774;SDS011;68119;43.398;3.676;2023-11-18T08:41:03;1.73;;;1.63;;
78774;SDS011;68119;43.398;3.676;2023-11-18T08:43:34;3.17;;;1.75;;
78774;SDS011;68119;43.398;3.676;2023-11-18T08:46:01;2.85;;;1.67;;
78774;SDS011;68119;43.398;3.676;2023-11-18T08:48:31;4.38;;;1.58;;
78774;SDS011;68119;43.398;3.676;2023-11-18T08:51:00;2.15;;;1.42;;
78774;SDS011;68119;43.398;3.676;2023-11-18T08:53:33;4.63;;;1.70;;
78774;SDS011;68119;43.398;3.676;2023-11-18T08:56:11;3.08;;;1.75;;
78774;SDS011;68119;43.398;3.676;2023-11-18T08:58:51;2.22;;;1.20;;
78774;SDS011;68119;43.398;3.676;2023-11-18T09:01:22;2.45;;;1.45;;
78774;SDS011;68119;43.398;3.676;2023-11-18T09:03:56;4.05;;;2.10;;
78774;SDS011;68119;43.398;3.676;2023-11-18T09:06:22;4.57;;;2.50;;
78774;SDS011;68119;43.398;3.676;2023-11-18T09:08:56;5.83;;;3.03;;
78774;SDS011;68119;43.398;3.676;2023-11-18T09:11:28;4.53;;;2.85;;
78774;SDS011;68119;43.398;3.676;2023-11-18T09:13:57;7.82;;;3.47;;
78774;SDS011;68119;43.398;3.676;2023-11-18T09:16:26;4.90;;;3.20;;
78774;SDS011;68119;43.398;3.676;2023-11-18T09:19:07;5.55;;;3.20;;
78774;SDS011;68119;43.398;3.676;2023-11-18T09:21:37;4.60;;;2.70;;
78774;SDS011;68119;43.398;3.676;2023-11-18T09:24:05;6.40;;;3.13;;
78774;SDS011;68119;43.398;3.676;2023-11-18T09:26:37;6.40;;;3.13;;
78774;SDS011;68119;43.398;3.676;2023-11-18T09:29:09;6.03;;;2.95;;
78774;SDS011;68119;43.398;3.676;2023-11-18T09:31:38;6.82;;;3.38;;
78774;SDS011;68119;43.398;3.676;2023-11-18T09:34:09;5.10;;;3.28;;
78774;SDS011;68119;43.398;3.676;2023-11-18T09:36:43;6.15;;;3.53;;
78774;SDS011;68119;43.398;3.676;2023-11-18T09:39:10;7.50;;;3.53;;
78774;SDS011;68119;43.398;3.676;2023-11-18T09:41:57;5.75;;;3.72;;
78774;SDS011;68119;43.398;3.676;2023-11-18T09:44:23;10.35;;;4.97;;
78774;SDS011;68119;43.398;3.676;2023-11-18T09:46:56;7.75;;;4.22;;
78774;SDS011;68119;43.398;3.676;2023-11-18T09:49:31;7.70;;;4.40;;
78774;SDS011;68119;43.398;3.676;2023-11-18T09:52:04;6.93;;;3.83;;
78774;SDS011;68119;43.398;3.676;2023-11-18T09:55:32;9.43;;;3.60;;
78774;SDS011;68119;43.398;3.676;2023-11-18T09:57:36;7.70;;;3.97;;
78774;SDS011;68119;43.398;3.676;2023-11-18T10:00:10;9.07;;;4.07;;
78774;SDS011;68119;43.398;3.676;2023-11-18T10:02:52;3.65;;;2.55;;
78774;SDS011;68119;43.398;3.676;2023-11-18T10:05:22;5.65;;;2.28;;
78774;SDS011;68119;43.398;3.676;2023-11-18T10:07:54;3.17;;;1.92;;
78774;SDS011;68119;43.398;3.676;2023-11-18T10:10:41;2.58;;;1.60;;
78774;SDS011;68119;43.398;3.676;2023-11-18T10:13:13;2.90;;;1.50;;
78774;SDS011;68119;43.398;3.676;2023-11-18T10:15:52;3.42;;;1.88;;
78774;SDS011;68119;43.398;3.676;2023-11-18T10:18:22;3.55;;;2.03;;
78774;SDS011;68119;43.398;3.676;2023-11-18T10:20:53;3.70;;;2.10;;
78774;SDS011;68119;43.398;3.676;2023-11-18T10:23:23;4.47;;;2.47;;
78774;SDS011;68119;43.398;3.676;2023-11-18T10:25:56;7.03;;;3.22;;
78774;SDS011;68119;43.398;3.676;2023-11-18T10:28:26;8.70;;;3.75;;
78774;SDS011;68119;43.398;3.676;2023-11-18T10:30:55;8.63;;;4.55;;
78774;SDS011;68119;43.398;3.676;2023-11-18T10:33:34;6.90;;;3.83;;
78774;SDS011;68119;43.398;3.676;2023-11-18T10:38:32;6.30;;;3.20;;
78774;SDS011;68119;43.398;3.676;2023-11-18T10:41:01;3.97;;;2.53;;
78774;SDS011;68119;43.398;3.676;2023-11-18T10:43:31;4.32;;;2.30;;
78774;SDS011;68119;43.398;3.676;2023-11-18T10:46:07;3.77;;;2.40;;
78774;SDS011;68119;43.398;3.676;2023-11-18T10:48:50;3.95;;;2.40;;
78774;SDS011;68119;43.398;3.676;2023-11-18T10:51:20;5.60;;;2.67;;
78774;SDS011;68119;43.398;3.676;2023-11-18T10:53:51;7.80;;;2.67;;
78774;SDS011;68119;43.398;3.676;2023-11-18T10:56:26;6.53;;;3.10;;
78774;SDS011;68119;43.398;3.676;2023-11-18T10:58:58;6.45;;;3.45;;
78774;SDS011;68119;43.398;3.676;2023-11-18T11:01:33;6.95;;;3.20;;
78774;SDS011;68119;43.398;3.676;2023-11-18T11:04:04;6.55;;;3.00;;
78774;SDS011;68119;43.398;3.676;2023-11-18T11:06:35;6.88;;;3.15;;
78774;SDS011;68119;43.398;3.676;2023-11-18T11:09:06;3.92;;;2.65;;
78774;SDS011;68119;43.398;3.676;2023-11-18T11:11:59;5.50;;;2.80;;
78774;SDS011;68119;43.398;3.676;2023-11-18T11:14:32;4.97;;;2.70;;
78774;SDS011;68119;43.398;3.676;2023-11-18T11:17:25;4.50;;;2.40;;
78774;SDS011;68119;43.398;3.676;2023-11-18T11:20:12;2.95;;;2.00;;
78774;SDS011;68119;43.398;3.676;2023-11-18T11:31:14;2.80;;;1.70;;
78774;SDS011;68119;43.398;3.676;2023-11-18T11:33:43;2.75;;;1.70;;
78774;SDS011;68119;43.398;3.676;2023-11-18T11:36:17;3.35;;;1.67;;
78774;SDS011;68119;43.398;3.676;2023-11-18T11:38:52;3.38;;;1.60;;
78774;SDS011;68119;43.398;3.676;2023-11-18T11:41:21;4.15;;;1.35;;
78774;SDS011;68119;43.398;3.676;2023-11-18T11:49:05;4.63;;;1.83;;
78774;SDS011;68119;43.398;3.676;2023-11-18T12:18:11;2.80;;;1.92;;
78774;SDS011;68119;43.398;3.676;2023-11-18T12:20:56;4.18;;;2.45;;
78774;SDS011;68119;43.398;3.676;2023-11-18T12:23:28;4.55;;;1.80;;
78774;SDS011;68119;43.398;3.676;2023-11-18T12:28:56;5.07;;;2.10;;
78774;SDS011;68119;43.398;3.676;2023-11-18T12:32:01;2.85;;;1.80;;
78774;SDS011;68119;43.398;3.676;2023-11-18T12:34:24;3.13;;;1.83;;
78774;SDS011;68119;43.398;3.676;2023-11-18T12:37:11;3.03;;;1.80;;
78774;SDS011;68119;43.398;3.676;2023-11-18T12:45:38;2.97;;;1.40;;
78774;SDS011;68119;43.398;3.676;2023-11-18T12:48:20;2.00;;;1.20;;
78774;SDS011;68119;43.398;3.676;2023-11-18T12:51:10;3.50;;;1.30;;
78774;SDS011;68119;43.398;3.676;2023-11-18T12:53:51;1.33;;;0.80;;
78774;SDS011;68119;43.398;3.676;2023-11-18T12:56:43;1.70;;;1.15;;
78774;SDS011;68119;43.398;3.676;2023-11-18T12:59:30;2.25;;;1.23;;
78774;SDS011;68119;43.398;3.676;2023-11-18T13:02:10;2.70;;;1.40;;
78774;SDS011;68119;43.398;3.676;2023-11-18T13:05:18;2.13;;;1.50;;
78774;SDS011;68119;43.398;3.676;2023-11-18T13:07:50;3.08;;;1.40;;
78774;SDS011;68119;43.398;3.676;2023-11-18T13:10:32;2.67;;;1.60;;
78774;SDS011;68119;43.398;3.676;2023-11-18T13:13:39;3.40;;;2.00;;
78774;SDS011;68119;43.398;3.676;2023-11-18T13:18:44;3.42;;;2.22;;
78774;SDS011;68119;43.398;3.676;2023-11-18T13:21:26;3.60;;;1.92;;
78774;SDS011;68119;43.398;3.676;2023-11-18T13:23:55;3.72;;;1.65;;
78774;SDS011;68119;43.398;3.676;2023-11-18T13:26:28;2.97;;;1.93;;
78774;SDS011;68119;43.398;3.676;2023-11-18T13:31:34;4.93;;;2.88;;
78774;SDS011;68119;43.398;3.676;2023-11-18T13:34:05;4.65;;;2.75;;
78774;SDS011;68119;43.398;3.676;2023-11-18T13:36:43;6.95;;;2.22;;
78774;SDS011;68119;43.398;3.676;2023-11-18T13:39:35;6.13;;;3.03;;
78774;SDS011;68119;43.398;3.676;2023-11-18T13:45:00;4.05;;;2.30;;
78774;SDS011;68119;43.398;3.676;2023-11-18T13:47:51;3.47;;;1.92;;
78774;SDS011;68119;43.398;3.676;2023-11-18T13:50:22;6.75;;;2.67;;
78774;SDS011;68119;43.398;3.676;2023-11-18T13:52:54;5.72;;;2.25;;
78774;SDS011;68119;43.398;3.676;2023-11-18T13:55:52;4.70;;;1.85;;
78774;SDS011;68119;43.398;3.676;2023-11-18T14:03:58;4.35;;;1.60;;
78774;SDS011;68119;43.398;3.676;2023-11-18T14:07:00;3.80;;;1.83;;
78774;SDS011;68119;43.398;3.676;2023-11-18T14:09:58;3.92;;;2.00;;
78774;SDS011;68119;43.398;3.676;2023-11-18T14:12:32;2.55;;;1.40;;
78774;SDS011;68119;43.398;3.676;2023-11-18T14:15:01;2.72;;;1.55;;
78774;SDS011;68119;43.398;3.676;2023-11-18T14:17:32;3.58;;;1.70;;
78774;SDS011;68119;43.398;3.676;2023-11-18T14:20:13;3.80;;;1.67;;
78774;SDS011;68119;43.398;3.676;2023-11-18T14:22:42;2.47;;;1.67;;
78774;SDS011;68119;43.398;3.676;2023-11-18T14:25:14;3.00;;;1.70;;
78774;SDS011;68119;43.398;3.676;2023-11-18T14:38:40;3.72;;;1.70;;
78774;SDS011;68119;43.398;3.676;2023-11-18T14:41:08;5.07;;;1.85;;
78774;SDS011;68119;43.398;3.676;2023-11-18T14:43:37;3.28;;;1.58;;
78774;SDS011;68119;43.398;3.676;2023-11-18T14:46:27;2.75;;;1.58;;
78774;SDS011;68119;43.398;3.676;2023-11-18T14:49:18;3.20;;;1.73;;
78774;SDS011;68119;43.398;3.676;2023-11-18T14:54:20;3.50;;;1.73;;
78774;SDS011;68119;43.398;3.676;2023-11-18T14:56:51;3.13;;;1.52;;
78774;SDS011;68119;43.398;3.676;2023-11-18T14:59:35;2.75;;;1.70;;
78774;SDS011;68119;43.398;3.676;2023-11-18T15:02:02;3.70;;;1.40;;
78774;SDS011;68119;43.398;3.676;2023-11-18T15:04:33;2.55;;;1.35;;
78774;SDS011;68119;43.398;3.676;2023-11-18T15:07:00;2.60;;;1.38;;
78774;SDS011;68119;43.398;3.676;2023-11-18T15:09:50;3.45;;;1.48;;
78774;SDS011;68119;43.398;3.676;2023-11-18T15:12:23;5.40;;;1.85;;
78774;SDS011;68119;43.398;3.676;2023-11-18T15:14:50;4.30;;;1.70;;
78774;SDS011;68119;43.398;3.676;2023-11-18T15:17:17;5.40;;;1.65;;
78774;SDS011;68119;43.398;3.676;2023-11-18T15:19:44;3.40;;;1.65;;
78774;SDS011;68119;43.398;3.676;2023-11-18T15:22:30;3.97;;;1.75;;
78774;SDS011;68119;43.398;3.676;2023-11-18T15:24:59;3.25;;;1.63;;
78774;SDS011;68119;43.398;3.676;2023-11-18T15:27:39;5.82;;;1.80;;
78774;SDS011;68119;43.398;3.676;2023-11-18T15:30:40;4.30;;;1.90;;
78774;SDS011;68119;43.398;3.676;2023-11-18T15:35:55;5.80;;;2.05;;
78774;SDS011;68119;43.398;3.676;2023-11-18T15:43:30;5.72;;;2.00;;
78774;SDS011;68119;43.398;3.676;2023-11-18T15:45:59;4.40;;;1.92;;
78774;SDS011;68119;43.398;3.676;2023-11-18T15:48:26;4.40;;;1.67;;
78774;SDS011;68119;43.398;3.676;2023-11-18T15:51:15;3.58;;;1.40;;
78774;SDS011;68119;43.398;3.676;2023-11-18T15:54:04;10.25;;;1.60;;
78774;SDS011;68119;43.398;3.676;2023-11-18T15:57:00;4.70;;;1.92;;
78774;SDS011;68119;43.398;3.676;2023-11-18T15:59:47;9.27;;;1.88;;
78774;SDS011;68119;43.398;3.676;2023-11-18T16:02:30;4.95;;;1.90;;
78774;SDS011;68119;43.398;3.676;2023-11-18T16:05:18;4.13;;;1.65;;
78774;SDS011;68119;43.398;3.676;2023-11-18T16:08:03;9.70;;;2.20;;
78774;SDS011;68119;43.398;3.676;2023-11-18T16:10:34;4.32;;;1.80;;
78774;SDS011;68119;43.398;3.676;2023-11-18T16:13:05;6.97;;;2.00;;
78774;SDS011;68119;43.398;3.676;2023-11-18T16:15:37;4.63;;;1.92;;
78774;SDS011;68119;43.398;3.676;2023-11-18T16:18:06;3.47;;;1.90;;
78774;SDS011;68119;43.398;3.676;2023-11-18T16:20:33;7.10;;;2.47;;
78774;SDS011;68119;43.398;3.676;2023-11-18T16:23:02;4.80;;;2.03;;
78774;SDS011;68119;43.398;3.676;2023-11-18T16:25:29;10.35;;;2.10;;
78774;SDS011;68119;43.398;3.676;2023-11-18T16:28:04;8.30;;;2.08;;
78774;SDS011;68119;43.398;3.676;2023-11-18T16:30:37;15.30;;;2.42;;
78774;SDS011;68119;43.398;3.676;2023-11-18T16:33:03;6.13;;;1.85;;
78774;SDS011;68119;43.398;3.676;2023-11-18T16:35:35;7.22;;;2.13;;
78774;SDS011;68119;43.398;3.676;2023-11-18T16:38:06;5.20;;;2.30;;
78774;SDS011;68119;43.398;3.676;2023-11-18T16:40:33;4.35;;;1.90;;
78774;SDS011;68119;43.398;3.676;2023-11-18T16:42:59;6.60;;;2.70;;
78774;SDS011;68119;43.398;3.676;2023-11-18T16:45:26;6.30;;;2.30;;
78774;SDS011;68119;43.398;3.676;2023-11-18T16:47:58;8.82;;;2.40;;
78774;SDS011;68119;43.398;3.676;2023-11-18T16:50:32;5.82;;;2.45;;
78774;SDS011;68119;43.398;3.676;2023-11-18T16:53:03;5.65;;;2.10;;
78774;SDS011;68119;43.398;3.676;2023-11-18T16:55:31;3.50;;;2.08;;
78774;SDS011;68119;43.398;3.676;2023-11-18T16:58:02;8.35;;;2.28;;